createdAt,value
2023-04-23T00:00:01.778Z,0.1
2023-04-23T00:02:05.622Z,0.1
2023-04-23T00:04:09.597Z,0.1
2023-04-23T00:06:16.072Z,0.1
2023-04-23T00:08:19.954Z,0.1
2023-04-23T00:10:23.763Z,0.1
2023-04-23T00:12:27.575Z,0.1
2023-04-23T00:14:31.422Z,0.1
2023-04-23T00:16:35.278Z,0.1
2023-04-23T00:18:39.067Z,0.1
2023-04-23T00:20:45.748Z,0.2
2023-04-23T00:22:49.566Z,0.1
2023-04-23T00:25:56.709Z,0.1
2023-04-23T00:28:00.532Z,0.1
2023-04-23T00:30:04.354Z,0.1
2023-04-23T00:34:14.824Z,0.1
2023-04-23T00:36:18.649Z,0.2
2023-04-23T00:40:26.314Z,0.1
2023-04-23T00:42:30.123Z,0.1
2023-04-23T00:46:37.787Z,0.1
2023-04-23T00:48:44.436Z,0.1
2023-04-23T00:50:48.234Z,0.1
2023-04-23T00:52:52.088Z,0.1
2023-04-23T00:54:55.910Z,0.1
2023-04-23T00:59:03.567Z,0.2
2023-04-23T01:01:07.397Z,0.1
2023-04-23T01:03:14.173Z,0.2
2023-04-23T01:07:21.694Z,0.2
2023-04-23T01:11:29.290Z,0.1
2023-04-23T01:13:33.141Z,0.2
2023-04-23T01:15:36.985Z,0.2
2023-04-23T01:17:43.596Z,0.2
2023-04-23T01:19:47.436Z,0.1
2023-04-23T01:26:24.716Z,0.1
2023-04-23T01:28:28.503Z,0.1
2023-04-23T01:30:35.171Z,0.1
2023-04-23T01:34:43.117Z,0.1
2023-04-23T01:36:46.638Z,0.1
2023-04-23T01:38:50.432Z,0.1
2023-04-23T01:40:54.284Z,0.1
2023-04-23T01:45:04.845Z,0.1
2023-04-23T01:47:08.547Z,0.1
2023-04-23T01:49:12.381Z,0.1
2023-04-23T01:51:16.215Z,0.1
2023-04-23T01:53:20.077Z,0.1
2023-04-23T01:55:23.900Z,0.1
2023-04-23T01:57:27.719Z,0.1
2023-04-23T02:01:38.225Z,0.1
2023-04-23T02:03:42.169Z,0.1
2023-04-23T02:07:49.674Z,0.1
2023-04-23T02:09:53.514Z,0.1
2023-04-23T02:11:57.333Z,0.2
2023-04-23T02:14:04.014Z,0.1
2023-04-23T02:16:07.870Z,0.1
2023-04-23T02:18:11.675Z,0.1
2023-04-23T02:21:18.825Z,0.1
2023-04-23T02:25:26.505Z,0.1
2023-04-23T02:31:40.884Z,0.1
2023-04-23T02:35:48.494Z,0.1
2023-04-23T02:50:18.301Z,0.1
2023-04-23T03:00:40.323Z,0.1
2023-04-23T03:02:44.286Z,0.1
2023-04-23T03:11:02.337Z,0.1
2023-04-23T03:13:06.149Z,0.1
2023-04-23T03:15:10.031Z,0.1
2023-04-23T03:16:13.339Z,0.1
2023-04-23T03:30:43.090Z,0.1
2023-04-23T03:32:46.930Z,0.1
2023-04-23T03:34:50.735Z,0.1
2023-04-23T03:36:54.586Z,0.1
2023-04-23T03:39:01.235Z,0.1
2023-04-23T03:41:05.082Z,0.1
2023-04-23T03:45:12.763Z,0.1
2023-04-23T03:47:16.593Z,0.2
2023-04-23T03:49:20.438Z,0.1
2023-04-23T03:51:24.261Z,0.1
2023-04-23T03:53:30.933Z,0.1
2023-04-23T03:55:34.756Z,0.1
2023-04-23T03:59:42.468Z,0.1
2023-04-23T04:01:46.287Z,0.1
2023-04-23T04:03:50.381Z,0.1
2023-04-23T04:08:00.642Z,0.1
2023-04-23T04:13:11.614Z,0.2
2023-04-23T04:15:15.474Z,0.1
2023-04-23T04:19:23.157Z,0.1
2023-04-23T04:21:31.274Z,0.1
2023-04-23T04:23:35.156Z,0.2
2023-04-23T04:27:42.776Z,0.1
2023-04-23T04:31:50.567Z,0.1
2023-04-23T04:33:54.271Z,0.1
2023-04-23T04:36:00.950Z,0.1
2023-04-23T04:38:04.751Z,0.1
2023-04-23T04:40:08.606Z,0.1
2023-04-23T04:46:20.191Z,0.1
2023-04-23T04:48:24.044Z,0.1
2023-04-23T05:02:53.849Z,0.1
2023-04-23T05:05:00.370Z,0.1
2023-04-23T05:11:31.923Z,0.1
2023-04-23T05:13:35.776Z,0.1
2023-04-23T05:15:39.594Z,0.1
2023-04-23T05:17:46.255Z,0.1
2023-04-23T05:21:53.921Z,0.1
2023-04-23T05:28:05.391Z,0.1
2023-04-23T05:36:23.588Z,0.1
2023-04-23T05:46:45.645Z,0.1
2023-04-23T05:48:49.500Z,0.1
2023-04-23T05:50:53.381Z,0.1
2023-04-23T05:57:04.926Z,0.1
2023-04-23T06:06:26.502Z,0.1
2023-04-23T06:08:30.442Z,0.1
2023-04-23T06:10:34.291Z,0.1
2023-04-23T06:12:38.266Z,0.1
2023-04-23T06:16:48.789Z,0.1
2023-04-23T06:18:52.664Z,0.1
2023-04-23T06:20:56.486Z,0
2023-04-23T06:23:00.372Z,0.1
2023-04-23T06:25:04.195Z,0.1
2023-04-23T06:27:08.077Z,0.1
2023-04-23T06:31:18.614Z,0.1
2023-04-23T06:33:22.459Z,0.1
2023-04-23T06:35:26.297Z,0.1
2023-04-23T06:37:30.183Z,0.1
2023-04-23T06:39:34.060Z,0.1
2023-04-23T06:41:37.895Z,0.1
2023-04-23T06:43:44.587Z,0.1
2023-04-23T06:45:48.432Z,0.1
2023-04-23T06:47:52.365Z,0.1
2023-04-23T06:49:56.167Z,0.1
2023-04-23T06:52:00.050Z,0.1
2023-04-23T06:54:03.922Z,0.1
2023-04-23T06:56:07.798Z,0.1
2023-04-23T07:00:18.358Z,0.1
2023-04-23T07:02:22.262Z,0
2023-04-23T07:03:25.595Z,0
2023-04-23T07:17:55.673Z,0.1
2023-04-23T07:24:07.489Z,0
2023-04-23T07:30:21.801Z,0.1
2023-04-23T07:36:33.576Z,0
2023-04-23T07:42:48.135Z,0
2023-04-23T07:44:52.068Z,0
2023-04-23T07:48:59.937Z,0
2023-04-23T07:51:03.809Z,0
2023-04-23T07:55:14.521Z,0
2023-04-23T07:59:22.346Z,0
2023-04-23T08:00:25.712Z,0
2023-04-23T08:04:33.718Z,0
2023-04-23T08:06:37.424Z,0
2023-04-23T08:08:44.196Z,0.5
2023-04-23T08:10:48.093Z,0
2023-04-23T08:12:51.997Z,0
2023-04-23T08:14:55.888Z,0
2023-04-23T08:16:59.769Z,0
2023-04-23T08:19:05.949Z,0
2023-04-23T08:21:07.552Z,0
2023-04-23T08:23:14.293Z,0
2023-04-23T08:25:18.151Z,5.1
2023-04-23T08:27:22.078Z,4.5
2023-04-23T08:29:25.938Z,6.4
2023-04-23T08:31:29.947Z,4.3
2023-04-23T08:33:33.699Z,4.9
2023-04-23T08:35:37.584Z,3.9
2023-04-23T08:37:44.355Z,4.1
2023-04-23T08:39:48.157Z,4.5
2023-04-23T08:41:52.047Z,3.4
2023-04-23T08:43:55.916Z,4.4
2023-04-23T08:48:03.693Z,4.5
2023-04-23T08:50:07.572Z,3.8
2023-04-23T08:52:14.249Z,3.9
2023-04-23T08:54:18.121Z,3.4
2023-04-23T08:56:22.001Z,3.3
2023-04-23T08:58:51.596Z,3.1
2023-04-23T09:00:55.456Z,4.7
2023-04-23T09:02:59.481Z,3.7
2023-04-23T09:05:06.020Z,3.2
2023-04-23T09:07:09.886Z,3.6
2023-04-23T09:09:13.754Z,3.6
2023-04-23T09:11:17.615Z,3.3
2023-04-23T09:19:35.907Z,2.6
2023-04-23T09:21:39.757Z,3.1
2023-04-23T09:23:43.634Z,3.3
2023-04-23T09:27:51.390Z,2.2
2023-04-23T09:29:55.275Z,4.9
2023-04-23T09:36:09.769Z,1.6
2023-04-23T09:40:17.537Z,2.5
2023-04-23T09:46:29.297Z,2.3
2023-04-23T09:50:39.799Z,3
2023-04-23T09:52:43.701Z,2.6
2023-04-23T09:53:47.034Z,2.4
2023-04-23T09:55:50.943Z,1.3
2023-04-23T09:57:54.824Z,1.9
2023-04-23T10:00:11.113Z,2.2
2023-04-23T10:02:05.470Z,1.8
2023-04-23T10:04:09.463Z,2.3
2023-04-23T10:06:25.521Z,1.6
2023-04-23T10:08:17.080Z,1.7
2023-04-23T10:10:20.962Z,1.9
2023-04-23T10:16:48.230Z,1.4
2023-04-23T10:18:40.827Z,1.7
2023-04-23T10:20:44.706Z,2
2023-04-23T10:22:48.601Z,2.2
2023-04-23T10:31:06.959Z,1.6
2023-04-23T10:35:14.733Z,1.8
2023-04-23T10:45:37.004Z,1.4
2023-04-23T10:49:44.779Z,0.7
2023-04-23T10:51:08.170Z,1.4
2023-04-23T10:52:52.038Z,2.3
2023-04-23T10:54:55.847Z,1.5
2023-04-23T10:56:59.744Z,1.3
2023-04-23T10:59:06.455Z,1.6
2023-04-23T11:01:10.416Z,1.3
2023-04-23T11:03:14.333Z,1
2023-04-23T11:05:18.127Z,1.9
2023-04-23T11:07:22.015Z,1.6
2023-04-23T11:09:25.905Z,1.4
2023-04-23T11:11:29.805Z,1.1
2023-04-23T11:13:36.553Z,1.5
2023-04-23T11:15:40.440Z,1.2
2023-04-23T11:17:44.372Z,1.2
2023-04-23T11:19:48.238Z,1.5
2023-04-23T11:21:52.150Z,1.3
2023-04-23T11:23:56.037Z,1.7
2023-04-23T11:25:59.906Z,1.2
2023-04-23T11:28:06.661Z,2.2
2023-04-23T11:30:10.566Z,1.5
2023-04-23T11:32:14.538Z,1.3
2023-04-23T11:34:18.352Z,1.6
2023-04-23T11:36:22.235Z,1.2
2023-04-23T11:42:36.743Z,1.1
2023-04-23T11:44:40.639Z,0.6
2023-04-23T11:47:47.944Z,1.2
2023-04-23T11:49:51.783Z,1.2
2023-04-23T11:51:55.693Z,1.2
2023-04-23T11:53:59.571Z,1.7
2023-04-23T11:56:06.330Z,0.8
2023-04-23T11:58:10.235Z,0.9
2023-04-23T12:00:14.106Z,1.6
2023-04-23T12:02:18.145Z,0.9
2023-04-23T12:04:22.113Z,1.2
2023-04-23T12:06:25.822Z,1.2
2023-04-23T12:08:29.732Z,1.5
2023-04-23T12:10:36.442Z,1.2
2023-04-23T12:12:40.362Z,1.4
2023-04-23T12:16:48.171Z,1.4
2023-04-23T12:18:52.073Z,0.9
2023-04-23T12:20:55.963Z,1.4
2023-04-23T12:22:59.873Z,1.3
2023-04-23T12:25:06.590Z,1.1
2023-04-23T12:27:10.511Z,0.9
2023-04-23T12:29:14.392Z,1.6
2023-04-23T12:31:18.345Z,1.3
2023-04-23T12:35:26.093Z,0.8
2023-04-23T12:41:40.648Z,0.7
2023-04-23T12:48:18.027Z,1.4
2023-04-23T12:50:21.938Z,1
2023-04-23T12:52:28.669Z,0.8
2023-04-23T12:54:32.582Z,1.1
2023-04-23T12:56:36.479Z,1.1
2023-04-23T12:58:40.368Z,1.2
2023-04-23T13:00:44.280Z,1.3
2023-04-23T13:02:48.397Z,1.3
2023-04-23T13:04:52.093Z,2.6
2023-04-23T13:09:02.738Z,0.9
2023-04-23T13:11:06.642Z,1.7
2023-04-23T13:13:10.537Z,1.1
2023-04-23T13:21:28.978Z,0.8
2023-04-23T13:27:40.669Z,1.6
2023-04-23T13:29:44.722Z,1.9
2023-04-23T13:31:48.498Z,1.3
2023-04-23T13:33:52.371Z,0.8
2023-04-23T13:35:59.102Z,1
2023-04-23T13:38:03.037Z,1.6
2023-04-23T13:40:06.928Z,0.8
2023-04-23T13:41:10.319Z,1.4
2023-04-23T13:45:18.109Z,1.4
2023-04-23T13:49:28.754Z,2.1
2023-04-23T13:51:36.112Z,1.5
2023-04-23T14:12:14.622Z,1.3
2023-04-23T14:14:18.511Z,1.1
2023-04-23T14:16:22.462Z,0.9
2023-04-23T14:18:29.200Z,0.8
2023-04-23T14:20:33.093Z,0.8
2023-04-23T14:22:37.014Z,1.6
2023-04-23T14:24:40.929Z,1.2
2023-04-23T14:26:49.331Z,1.4
2023-04-23T14:30:52.826Z,1.3
2023-04-23T14:32:59.590Z,1
2023-04-23T14:35:03.357Z,1.2
2023-04-23T14:37:07.256Z,0.7
2023-04-23T15:03:03.433Z,2
2023-04-23T15:05:07.312Z,1.4
2023-04-23T15:15:41.144Z,1.2
2023-04-23T15:17:33.670Z,1.2
2023-04-23T15:21:41.484Z,1.4
2023-04-23T15:23:45.420Z,1
2023-04-23T15:25:49.333Z,1.1
2023-04-23T15:27:53.262Z,0.9
2023-04-23T15:30:00.002Z,1.4
2023-04-23T15:32:04.012Z,0.8
2023-04-23T15:35:11.279Z,0.7
2023-04-23T15:37:15.177Z,2.1
2023-04-23T15:41:23.065Z,1.7
2023-04-23T15:43:27.664Z,0.8
2023-04-23T15:45:31.650Z,0.9
2023-04-23T15:49:39.654Z,1.4
2023-04-23T15:51:43.388Z,1
2023-04-23T15:53:47.322Z,1.4
2023-04-23T15:55:51.221Z,1.4
2023-04-23T15:57:57.981Z,1.8
2023-04-23T16:00:01.968Z,1.4
2023-04-23T16:02:05.914Z,1.2
2023-04-23T16:04:11.628Z,1.3
2023-04-23T16:06:13.670Z,1.2
2023-04-23T16:10:21.529Z,3.1
2023-04-23T16:18:41.471Z,1.4
2023-04-23T16:20:45.410Z,2.4
2023-04-23T16:22:49.314Z,2
2023-04-23T16:24:53.244Z,1.3
2023-04-23T16:26:59.986Z,1.2
2023-04-23T16:33:37.463Z,2.4
2023-04-23T16:35:41.385Z,2
2023-04-23T16:39:52.064Z,1.9
2023-04-23T16:41:55.936Z,2.2
2023-04-23T16:43:59.832Z,2.3
2023-04-23T16:46:03.795Z,1.7
2023-04-23T16:48:07.661Z,1.6
2023-04-23T16:52:15.475Z,4.2
2023-04-23T16:56:26.100Z,2.1
2023-04-23T16:58:29.979Z,1.5
2023-04-23T17:00:33.862Z,1.8
2023-04-23T17:02:37.915Z,2.1
2023-04-23T17:04:42.063Z,1.9
2023-04-23T17:06:45.553Z,2.4
2023-04-23T17:19:11.769Z,2.4
2023-04-23T17:21:15.672Z,3.3
2023-04-23T17:23:22.370Z,2.3
2023-04-23T17:27:30.166Z,4.8
2023-04-23T17:28:33.514Z,0
2023-04-23T17:32:41.360Z,0.1
2023-04-23T17:38:55.844Z,0
2023-04-23T18:03:45.539Z,0.1
2023-04-23T18:05:52.082Z,0.1
2023-04-23T18:07:55.974Z,0.1
2023-04-23T18:09:59.842Z,0
2023-04-23T18:12:03.749Z,0.1
2023-04-23T18:14:07.626Z,0.1
2023-04-23T18:16:11.522Z,0.1
2023-04-23T18:20:24.568Z,0
2023-04-23T18:24:29.965Z,0.1
2023-04-23T18:25:33.318Z,0.1
2023-04-23T18:27:37.193Z,0
2023-04-23T18:31:44.983Z,0.1
2023-04-23T18:35:55.601Z,0.1
2023-04-23T18:37:59.462Z,0.1
2023-04-23T18:40:03.370Z,0
2023-04-23T18:44:11.136Z,0
2023-04-23T18:46:15.078Z,0.1
2023-04-23T18:48:21.747Z,0
2023-04-23T18:50:25.655Z,0
2023-04-23T18:54:33.451Z,0
2023-04-23T18:58:41.212Z,0.1
2023-04-23T19:02:51.880Z,0.1
2023-04-23T19:09:03.469Z,0.1
2023-04-23T19:11:07.327Z,0.1
2023-04-23T19:13:11.226Z,0.1
2023-04-23T19:15:15.087Z,0
2023-04-23T19:17:21.876Z,0.1
2023-04-23T19:19:25.684Z,0.1
2023-04-23T19:21:29.580Z,0.1
2023-04-23T19:22:32.924Z,0.1
2023-04-23T19:24:36.822Z,0.1
2023-04-23T19:30:51.305Z,0.1
2023-04-23T19:34:59.120Z,0.1
2023-04-23T19:37:03.025Z,0
2023-04-23T19:39:06.948Z,0.1
2023-04-23T19:41:10.809Z,0.1
2023-04-23T19:45:21.351Z,0.1
2023-04-23T19:49:29.148Z,0.1
2023-04-23T19:55:40.874Z,0
2023-04-23T19:57:44.747Z,0.1
2023-04-23T19:59:51.445Z,0
2023-04-23T20:01:55.315Z,0
2023-04-23T20:06:03.147Z,0
2023-04-23T20:08:07.054Z,0.1
2023-04-23T20:20:58.987Z,0.1
2023-04-23T20:23:02.865Z,0.1
2023-04-23T20:25:06.768Z,0.1
2023-04-23T20:29:17.368Z,0.1
2023-04-23T20:31:21.460Z,0.1
2023-04-23T20:35:29.046Z,0
2023-04-23T20:47:55.235Z,0
2023-04-23T20:49:59.113Z,0.1
2023-04-23T20:52:03.032Z,0
2023-04-23T21:00:21.430Z,0.1
2023-04-23T21:04:29.313Z,0.1
2023-04-23T21:06:33.107Z,0.1
2023-04-23T21:08:37.003Z,0.1
2023-04-23T21:10:43.788Z,0
2023-04-23T21:12:47.697Z,0.1
2023-04-23T21:15:54.950Z,0
2023-04-23T21:17:58.855Z,0.1
2023-04-23T21:20:02.756Z,0.1
2023-04-23T21:22:06.626Z,0
2023-04-23T21:24:13.352Z,0
2023-04-23T21:26:17.232Z,0.1
2023-04-23T21:28:21.101Z,0.1
2023-04-23T21:30:25.017Z,0.1
2023-04-23T21:32:28.897Z,0.1
2023-04-23T21:34:32.781Z,0.1
2023-04-23T21:36:36.675Z,0
2023-04-23T21:40:47.252Z,0.1
2023-04-23T21:44:55.017Z,0.1
2023-04-23T21:49:02.785Z,0.1
2023-04-23T21:51:06.714Z,0.1
2023-04-23T21:53:13.378Z,0.1
2023-04-23T21:57:21.151Z,0.1
2023-04-23T22:01:28.981Z,0.1
2023-04-23T22:05:36.650Z,0.1
2023-04-23T22:07:43.374Z,0.1
2023-04-23T22:12:55.947Z,0.1
2023-04-23T22:37:48.106Z,0.1
2023-04-23T22:39:51.998Z,0.1
2023-04-23T22:41:55.867Z,0.1
2023-04-23T22:43:59.769Z,0.1
2023-04-23T22:46:03.682Z,0.1
2023-04-23T22:48:07.475Z,0.1
2023-04-23T22:50:14.136Z,0.1
2023-04-23T22:54:21.886Z,0.1
2023-04-23T22:56:25.779Z,0.1
2023-04-23T22:58:29.654Z,0.1
2023-04-23T23:00:33.508Z,0.1
2023-04-23T23:02:37.454Z,0.1
2023-04-23T23:04:44.256Z,0.1
2023-04-23T23:06:47.920Z,0
2023-04-23T23:08:51.789Z,0.1
2023-04-23T23:09:55.154Z,0.1
2023-04-23T23:11:59.024Z,0.1
2023-04-23T23:16:06.833Z,0.1
2023-04-23T23:18:13.458Z,0.1
2023-04-23T23:20:17.314Z,0.1
2023-04-23T23:22:21.225Z,0.1
2023-04-23T23:24:25.076Z,0.1
2023-04-23T23:26:28.940Z,0.1
2023-04-23T23:28:32.809Z,0.1
2023-04-23T23:30:36.673Z,0.1
2023-04-23T23:32:43.393Z,0.1
2023-04-23T23:34:47.262Z,0.1
2023-04-23T23:36:51.102Z,0.1
2023-04-23T23:38:54.971Z,0.1
2023-04-23T23:40:58.854Z,0.1
2023-04-23T23:45:06.580Z,0.1
2023-04-23T23:49:17.134Z,0.1
2023-04-23T23:53:24.883Z,0.1
2023-04-23T23:55:28.732Z,0.1
2023-04-23T23:59:36.507Z,0.1
